sensor_id;sensor_type;location;lat;lon;timestamp;temperature;humidity
83146;DHT22;73037;51.110;4.706;2023-12-07T00:00:48;3.10;80.00
83146;DHT22;73037;51.110;4.706;2023-12-07T00:03:13;3.10;80.10
83146;DHT22;73037;51.110;4.706;2023-12-07T00:05:40;3.10;80.00
83146;DHT22;73037;51.110;4.706;2023-12-07T00:08:09;3.10;80.10
83146;DHT22;73037;51.110;4.706;2023-12-07T00:10:36;3.10;80.10
83146;DHT22;73037;51.110;4.706;2023-12-07T00:13:01;3.10;79.90
83146;DHT22;73037;51.110;4.706;2023-12-07T00:15:27;3.10;79.90
83146;DHT22;73037;51.110;4.706;2023-12-07T00:17:53;3.10;80.30
83146;DHT22;73037;51.110;4.706;2023-12-07T00:20:18;3.20;80.20
83146;DHT22;73037;51.110;4.706;2023-12-07T00:22:44;3.20;80.20
83146;DHT22;73037;51.110;4.706;2023-12-07T00:25:09;3.30;80.30
83146;DHT22;73037;51.110;4.706;2023-12-07T00:27:35;3.30;80.20
83146;DHT22;73037;51.110;4.706;2023-12-07T00:30:01;3.30;80.30
83146;DHT22;73037;51.110;4.706;2023-12-07T00:32:26;3.30;80.10
83146;DHT22;73037;51.110;4.706;2023-12-07T00:34:53;3.30;80.20
83146;DHT22;73037;51.110;4.706;2023-12-07T00:37:18;3.30;80.00
83146;DHT22;73037;51.110;4.706;2023-12-07T00:39:44;3.30;79.80
83146;DHT22;73037;51.110;4.706;2023-12-07T00:42:10;3.30;79.90
83146;DHT22;73037;51.110;4.706;2023-12-07T00:44:42;3.30;80.20
83146;DHT22;73037;51.110;4.706;2023-12-07T00:47:07;3.30;80.00
83146;DHT22;73037;51.110;4.706;2023-12-07T00:49:33;3.30;79.60
83146;DHT22;73037;51.110;4.706;2023-12-07T00:51:59;3.20;80.00
83146;DHT22;73037;51.110;4.706;2023-12-07T00:54:24;3.20;79.80
83146;DHT22;73037;51.110;4.706;2023-12-07T00:56:50;3.20;80.20
83146;DHT22;73037;51.110;4.706;2023-12-07T00:59:16;3.20;80.00
83146;DHT22;73037;51.110;4.706;2023-12-07T01:01:42;3.10;80.10
83146;DHT22;73037;51.110;4.706;2023-12-07T01:04:08;3.20;79.80
83146;DHT22;73037;51.110;4.706;2023-12-07T01:06:33;3.20;79.90
83146;DHT22;73037;51.110;4.706;2023-12-07T01:08:59;3.30;80.10
83146;DHT22;73037;51.110;4.706;2023-12-07T01:11:25;3.30;80.00
83146;DHT22;73037;51.110;4.706;2023-12-07T01:13:50;3.30;80.10
83146;DHT22;73037;51.110;4.706;2023-12-07T01:16:16;3.30;80.00
83146;DHT22;73037;51.110;4.706;2023-12-07T01:18:42;3.30;79.70
83146;DHT22;73037;51.110;4.706;2023-12-07T01:21:07;3.30;79.70
83146;DHT22;73037;51.110;4.706;2023-12-07T01:23:33;3.20;79.80
83146;DHT22;73037;51.110;4.706;2023-12-07T01:25:59;3.30;80.10
83146;DHT22;73037;51.110;4.706;2023-12-07T01:28:27;3.30;80.20
83146;DHT22;73037;51.110;4.706;2023-12-07T01:30:53;3.30;80.00
83146;DHT22;73037;51.110;4.706;2023-12-07T01:33:19;3.30;79.80
83146;DHT22;73037;51.110;4.706;2023-12-07T01:35:44;3.30;79.90
83146;DHT22;73037;51.110;4.706;2023-12-07T01:38:10;3.40;80.00
83146;DHT22;73037;51.110;4.706;2023-12-07T01:40:36;3.40;80.00
83146;DHT22;73037;51.110;4.706;2023-12-07T01:43:01;3.30;79.50
83146;DHT22;73037;51.110;4.706;2023-12-07T01:45:27;3.40;79.70
83146;DHT22;73037;51.110;4.706;2023-12-07T01:47:54;3.30;79.60
83146;DHT22;73037;51.110;4.706;2023-12-07T01:50:22;3.30;79.70
83146;DHT22;73037;51.110;4.706;2023-12-07T01:52:52;3.30;79.90
83146;DHT22;73037;51.110;4.706;2023-12-07T01:55:20;3.30;79.80
83146;DHT22;73037;51.110;4.706;2023-12-07T01:57:47;3.30;79.40
83146;DHT22;73037;51.110;4.706;2023-12-07T02:00:13;3.30;79.50
83146;DHT22;73037;51.110;4.706;2023-12-07T02:02:39;3.30;79.60
83146;DHT22;73037;51.110;4.706;2023-12-07T02:05:06;3.30;79.80
83146;DHT22;73037;51.110;4.706;2023-12-07T02:07:34;3.30;79.80
83146;DHT22;73037;51.110;4.706;2023-12-07T02:09:59;3.30;79.60
83146;DHT22;73037;51.110;4.706;2023-12-07T02:12:26;3.30;80.00
83146;DHT22;73037;51.110;4.706;2023-12-07T02:14:55;3.30;79.90
83146;DHT22;73037;51.110;4.706;2023-12-07T02:18:14;3.30;79.80
83146;DHT22;73037;51.110;4.706;2023-12-07T02:23:03;3.30;79.90
83146;DHT22;73037;51.110;4.706;2023-12-07T02:28:00;3.30;80.10
83146;DHT22;73037;51.110;4.706;2023-12-07T02:30:26;3.30;80.10
83146;DHT22;73037;51.110;4.706;2023-12-07T02:32:51;3.30;79.70
83146;DHT22;73037;51.110;4.706;2023-12-07T02:35:17;3.30;80.10
83146;DHT22;73037;51.110;4.706;2023-12-07T02:37:45;3.30;80.20
83146;DHT22;73037;51.110;4.706;2023-12-07T02:40:12;3.40;79.70
83146;DHT22;73037;51.110;4.706;2023-12-07T02:42:41;3.30;79.70
83146;DHT22;73037;51.110;4.706;2023-12-07T02:45:09;3.30;79.90
83146;DHT22;73037;51.110;4.706;2023-12-07T02:47:35;3.30;79.70
83146;DHT22;73037;51.110;4.706;2023-12-07T02:50:02;3.30;79.50
83146;DHT22;73037;51.110;4.706;2023-12-07T02:52:28;3.30;79.90
83146;DHT22;73037;51.110;4.706;2023-12-07T02:54:54;3.40;80.00
83146;DHT22;73037;51.110;4.706;2023-12-07T02:57:20;3.40;79.80
83146;DHT22;73037;51.110;4.706;2023-12-07T02:59:45;3.50;79.90
83146;DHT22;73037;51.110;4.706;2023-12-07T03:02:11;3.50;79.70
83146;DHT22;73037;51.110;4.706;2023-12-07T03:04:36;3.40;79.20
83146;DHT22;73037;51.110;4.706;2023-12-07T03:07:02;3.30;79.70
83146;DHT22;73037;51.110;4.706;2023-12-07T03:09:28;3.40;79.90
83146;DHT22;73037;51.110;4.706;2023-12-07T03:11:53;3.40;79.30
83146;DHT22;73037;51.110;4.706;2023-12-07T03:14:19;3.30;79.00
83146;DHT22;73037;51.110;4.706;2023-12-07T03:16:45;3.30;79.30
83146;DHT22;73037;51.110;4.706;2023-12-07T03:19:11;3.30;79.50
83146;DHT22;73037;51.110;4.706;2023-12-07T03:21:40;3.10;79.50
83146;DHT22;73037;51.110;4.706;2023-12-07T03:24:07;3.10;79.90
83146;DHT22;73037;51.110;4.706;2023-12-07T03:26:34;3.20;79.70
83146;DHT22;73037;51.110;4.706;2023-12-07T03:28:59;3.30;79.60
83146;DHT22;73037;51.110;4.706;2023-12-07T03:31:25;3.20;79.80
83146;DHT22;73037;51.110;4.706;2023-12-07T03:33:51;3.30;79.90
83146;DHT22;73037;51.110;4.706;2023-12-07T03:36:16;3.30;79.90
83146;DHT22;73037;51.110;4.706;2023-12-07T03:38:42;3.30;79.50
83146;DHT22;73037;51.110;4.706;2023-12-07T03:41:08;3.40;79.80
83146;DHT22;73037;51.110;4.706;2023-12-07T03:43:34;3.40;79.50
83146;DHT22;73037;51.110;4.706;2023-12-07T03:46:03;3.50;79.60
83146;DHT22;73037;51.110;4.706;2023-12-07T03:48:29;3.50;79.60
83146;DHT22;73037;51.110;4.706;2023-12-07T03:50:54;3.50;79.80
83146;DHT22;73037;51.110;4.706;2023-12-07T03:53:20;3.50;79.50
83146;DHT22;73037;51.110;4.706;2023-12-07T03:55:45;3.50;79.20
83146;DHT22;73037;51.110;4.706;2023-12-07T03:58:11;3.50;79.30
83146;DHT22;73037;51.110;4.706;2023-12-07T04:00:38;3.50;79.40
83146;DHT22;73037;51.110;4.706;2023-12-07T04:03:04;3.50;79.60
83146;DHT22;73037;51.110;4.706;2023-12-07T04:05:30;3.50;79.50
83146;DHT22;73037;51.110;4.706;2023-12-07T04:07:56;3.50;79.70
83146;DHT22;73037;51.110;4.706;2023-12-07T04:10:22;3.50;79.60
83146;DHT22;73037;51.110;4.706;2023-12-07T04:12:47;3.50;79.70
83146;DHT22;73037;51.110;4.706;2023-12-07T04:15:13;3.50;79.50
83146;DHT22;73037;51.110;4.706;2023-12-07T04:17:39;3.50;79.60
83146;DHT22;73037;51.110;4.706;2023-12-07T04:20:04;3.40;79.80
83146;DHT22;73037;51.110;4.706;2023-12-07T04:22:31;3.50;80.00
83146;DHT22;73037;51.110;4.706;2023-12-07T04:24:56;3.50;79.70
83146;DHT22;73037;51.110;4.706;2023-12-07T04:27:22;3.50;79.70
83146;DHT22;73037;51.110;4.706;2023-12-07T04:29:48;3.50;79.50
83146;DHT22;73037;51.110;4.706;2023-12-07T04:32:13;3.50;79.40
83146;DHT22;73037;51.110;4.706;2023-12-07T04:34:39;3.40;79.20
83146;DHT22;73037;51.110;4.706;2023-12-07T04:37:04;3.40;79.40
83146;DHT22;73037;51.110;4.706;2023-12-07T04:39:30;3.30;79.30
83146;DHT22;73037;51.110;4.706;2023-12-07T04:41:56;3.30;79.10
83146;DHT22;73037;51.110;4.706;2023-12-07T04:44:21;3.30;79.20
83146;DHT22;73037;51.110;4.706;2023-12-07T04:46:47;3.40;79.30
83146;DHT22;73037;51.110;4.706;2023-12-07T04:49:13;3.50;79.00
83146;DHT22;73037;51.110;4.706;2023-12-07T04:51:38;3.50;79.10
83146;DHT22;73037;51.110;4.706;2023-12-07T04:54:04;3.50;79.00
83146;DHT22;73037;51.110;4.706;2023-12-07T04:56:29;3.50;78.70
83146;DHT22;73037;51.110;4.706;2023-12-07T04:58:55;3.50;78.90
83146;DHT22;73037;51.110;4.706;2023-12-07T05:01:21;3.50;79.10
83146;DHT22;73037;51.110;4.706;2023-12-07T05:03:46;3.50;79.10
83146;DHT22;73037;51.110;4.706;2023-12-07T05:06:12;3.50;78.50
83146;DHT22;73037;51.110;4.706;2023-12-07T05:08:39;3.50;79.10
83146;DHT22;73037;51.110;4.706;2023-12-07T05:11:05;3.50;78.70
83146;DHT22;73037;51.110;4.706;2023-12-07T05:13:32;3.50;78.80
83146;DHT22;73037;51.110;4.706;2023-12-07T05:15:59;3.50;78.70
83146;DHT22;73037;51.110;4.706;2023-12-07T05:18:25;3.50;78.90
83146;DHT22;73037;51.110;4.706;2023-12-07T05:20:52;3.50;78.70
83146;DHT22;73037;51.110;4.706;2023-12-07T05:23:17;3.50;79.10
83146;DHT22;73037;51.110;4.706;2023-12-07T05:25:43;3.50;78.80
83146;DHT22;73037;51.110;4.706;2023-12-07T05:28:09;3.50;78.70
83146;DHT22;73037;51.110;4.706;2023-12-07T05:30:35;3.50;78.80
83146;DHT22;73037;51.110;4.706;2023-12-07T05:33:02;3.50;78.70
83146;DHT22;73037;51.110;4.706;2023-12-07T05:35:27;3.50;78.60
83146;DHT22;73037;51.110;4.706;2023-12-07T05:37:53;3.50;78.60
83146;DHT22;73037;51.110;4.706;2023-12-07T05:40:18;3.50;79.00
83146;DHT22;73037;51.110;4.706;2023-12-07T05:42:49;3.50;78.80
83146;DHT22;73037;51.110;4.706;2023-12-07T05:45:15;3.50;78.60
83146;DHT22;73037;51.110;4.706;2023-12-07T05:47:41;3.50;78.70
83146;DHT22;73037;51.110;4.706;2023-12-07T05:50:07;3.50;78.50
83146;DHT22;73037;51.110;4.706;2023-12-07T05:52:33;3.50;78.30
83146;DHT22;73037;51.110;4.706;2023-12-07T05:54:59;3.50;78.40
83146;DHT22;73037;51.110;4.706;2023-12-07T05:57:24;3.50;78.20
83146;DHT22;73037;51.110;4.706;2023-12-07T05:59:50;3.50;78.30
83146;DHT22;73037;51.110;4.706;2023-12-07T06:02:16;3.50;78.20
83146;DHT22;73037;51.110;4.706;2023-12-07T06:04:42;3.40;78.40
83146;DHT22;73037;51.110;4.706;2023-12-07T06:07:07;3.50;78.60
83146;DHT22;73037;51.110;4.706;2023-12-07T06:09:33;3.50;78.50
83146;DHT22;73037;51.110;4.706;2023-12-07T06:11:59;3.40;78.30
83146;DHT22;73037;51.110;4.706;2023-12-07T06:14:25;3.40;78.00
83146;DHT22;73037;51.110;4.706;2023-12-07T06:16:51;3.40;77.80
83146;DHT22;73037;51.110;4.706;2023-12-07T06:19:16;3.40;77.50
83146;DHT22;73037;51.110;4.706;2023-12-07T06:21:43;3.50;77.70
83146;DHT22;73037;51.110;4.706;2023-12-07T06:24:09;3.50;77.90
83146;DHT22;73037;51.110;4.706;2023-12-07T06:26:35;3.40;77.30
83146;DHT22;73037;51.110;4.706;2023-12-07T06:29:01;3.30;77.80
83146;DHT22;73037;51.110;4.706;2023-12-07T06:31:27;3.40;78.20
83146;DHT22;73037;51.110;4.706;2023-12-07T06:33:53;3.50;78.10
83146;DHT22;73037;51.110;4.706;2023-12-07T06:36:23;3.50;77.80
83146;DHT22;73037;51.110;4.706;2023-12-07T06:38:49;3.30;77.80
83146;DHT22;73037;51.110;4.706;2023-12-07T06:41:15;3.40;78.20
83146;DHT22;73037;51.110;4.706;2023-12-07T06:43:41;3.40;77.60
83146;DHT22;73037;51.110;4.706;2023-12-07T06:46:10;3.40;77.80
83146;DHT22;73037;51.110;4.706;2023-12-07T06:48:36;3.30;76.90
83146;DHT22;73037;51.110;4.706;2023-12-07T06:51:02;3.30;77.60
83146;DHT22;73037;51.110;4.706;2023-12-07T06:53:28;3.30;77.20
83146;DHT22;73037;51.110;4.706;2023-12-07T06:55:53;3.30;77.60
83146;DHT22;73037;51.110;4.706;2023-12-07T06:58:19;3.30;77.50
83146;DHT22;73037;51.110;4.706;2023-12-07T07:00:45;3.40;77.20
83146;DHT22;73037;51.110;4.706;2023-12-07T07:03:10;3.40;77.10
83146;DHT22;73037;51.110;4.706;2023-12-07T07:05:36;3.30;77.10
83146;DHT22;73037;51.110;4.706;2023-12-07T07:08:02;3.30;77.50
83146;DHT22;73037;51.110;4.706;2023-12-07T07:10:27;3.30;77.20
83146;DHT22;73037;51.110;4.706;2023-12-07T07:12:53;3.40;77.50
83146;DHT22;73037;51.110;4.706;2023-12-07T07:15:19;3.30;76.90
83146;DHT22;73037;51.110;4.706;2023-12-07T07:17:45;3.30;77.40
83146;DHT22;73037;51.110;4.706;2023-12-07T07:20:11;3.30;77.20
83146;DHT22;73037;51.110;4.706;2023-12-07T07:22:37;3.30;77.20
83146;DHT22;73037;51.110;4.706;2023-12-07T07:25:02;3.20;77.40
83146;DHT22;73037;51.110;4.706;2023-12-07T07:27:28;3.20;77.70
83146;DHT22;73037;51.110;4.706;2023-12-07T07:29:54;3.10;77.60
83146;DHT22;73037;51.110;4.706;2023-12-07T07:32:19;3.10;77.70
83146;DHT22;73037;51.110;4.706;2023-12-07T07:34:45;3.10;77.80
83146;DHT22;73037;51.110;4.706;2023-12-07T07:37:11;3.10;77.90
83146;DHT22;73037;51.110;4.706;2023-12-07T07:39:36;3.10;78.00
83146;DHT22;73037;51.110;4.706;2023-12-07T07:42:02;3.10;77.90
83146;DHT22;73037;51.110;4.706;2023-12-07T07:44:28;3.10;78.20
83146;DHT22;73037;51.110;4.706;2023-12-07T07:46:54;3.00;78.10
83146;DHT22;73037;51.110;4.706;2023-12-07T07:49:19;3.00;78.20
83146;DHT22;73037;51.110;4.706;2023-12-07T07:51:45;3.00;78.10
83146;DHT22;73037;51.110;4.706;2023-12-07T07:54:10;3.10;78.20
83146;DHT22;73037;51.110;4.706;2023-12-07T07:56:36;3.10;78.20
83146;DHT22;73037;51.110;4.706;2023-12-07T07:59:02;3.10;77.60
83146;DHT22;73037;51.110;4.706;2023-12-07T08:01:27;3.00;77.70
83146;DHT22;73037;51.110;4.706;2023-12-07T08:03:53;3.00;78.00
83146;DHT22;73037;51.110;4.706;2023-12-07T08:06:19;3.00;78.10
83146;DHT22;73037;51.110;4.706;2023-12-07T08:08:44;3.00;78.10
83146;DHT22;73037;51.110;4.706;2023-12-07T08:11:10;3.00;78.00
83146;DHT22;73037;51.110;4.706;2023-12-07T08:13:35;3.00;78.00
83146;DHT22;73037;51.110;4.706;2023-12-07T08:16:01;2.90;78.00
83146;DHT22;73037;51.110;4.706;2023-12-07T08:18:27;2.90;77.90
83146;DHT22;73037;51.110;4.706;2023-12-07T08:20:53;2.90;78.00
83146;DHT22;73037;51.110;4.706;2023-12-07T08:23:18;2.90;78.30
83146;DHT22;73037;51.110;4.706;2023-12-07T08:25:44;2.90;78.20
83146;DHT22;73037;51.110;4.706;2023-12-07T08:28:10;2.90;78.40
83146;DHT22;73037;51.110;4.706;2023-12-07T08:30:36;2.90;78.10
83146;DHT22;73037;51.110;4.706;2023-12-07T08:33:02;2.80;78.30
83146;DHT22;73037;51.110;4.706;2023-12-07T08:35:27;2.80;78.20
83146;DHT22;73037;51.110;4.706;2023-12-07T08:37:53;2.90;78.50
83146;DHT22;73037;51.110;4.706;2023-12-07T08:40:19;2.90;78.20
83146;DHT22;73037;51.110;4.706;2023-12-07T08:42:45;2.90;78.30
83146;DHT22;73037;51.110;4.706;2023-12-07T08:45:11;2.90;78.20
83146;DHT22;73037;51.110;4.706;2023-12-07T08:47:36;2.90;78.30
83146;DHT22;73037;51.110;4.706;2023-12-07T08:50:02;2.90;78.30
83146;DHT22;73037;51.110;4.706;2023-12-07T08:52:28;2.90;78.20
83146;DHT22;73037;51.110;4.706;2023-12-07T08:54:53;2.90;78.10
83146;DHT22;73037;51.110;4.706;2023-12-07T08:57:19;3.00;78.10
83146;DHT22;73037;51.110;4.706;2023-12-07T08:59:45;3.00;78.20
83146;DHT22;73037;51.110;4.706;2023-12-07T09:02:11;3.10;77.60
83146;DHT22;73037;51.110;4.706;2023-12-07T09:04:37;3.10;78.00
83146;DHT22;73037;51.110;4.706;2023-12-07T09:07:05;3.20;77.60
83146;DHT22;73037;51.110;4.706;2023-12-07T09:09:31;3.30;77.70
83146;DHT22;73037;51.110;4.706;2023-12-07T09:11:57;3.30;77.80
83146;DHT22;73037;51.110;4.706;2023-12-07T09:14:22;3.30;77.50
83146;DHT22;73037;51.110;4.706;2023-12-07T09:16:48;3.30;77.50
83146;DHT22;73037;51.110;4.706;2023-12-07T09:19:13;3.30;77.40
83146;DHT22;73037;51.110;4.706;2023-12-07T09:21:42;3.30;77.60
83146;DHT22;73037;51.110;4.706;2023-12-07T09:24:08;3.30;77.60
83146;DHT22;73037;51.110;4.706;2023-12-07T09:26:33;3.30;77.60
83146;DHT22;73037;51.110;4.706;2023-12-07T09:28:59;3.30;77.40
83146;DHT22;73037;51.110;4.706;2023-12-07T09:31:25;3.30;76.90
83146;DHT22;73037;51.110;4.706;2023-12-07T09:33:50;3.30;77.00
83146;DHT22;73037;51.110;4.706;2023-12-07T09:36:19;3.40;77.00
83146;DHT22;73037;51.110;4.706;2023-12-07T09:38:47;3.50;77.30
83146;DHT22;73037;51.110;4.706;2023-12-07T09:41:12;3.50;77.00
83146;DHT22;73037;51.110;4.706;2023-12-07T09:43:39;3.60;77.00
83146;DHT22;73037;51.110;4.706;2023-12-07T09:46:05;3.60;76.50
83146;DHT22;73037;51.110;4.706;2023-12-07T09:48:32;3.70;76.30
83146;DHT22;73037;51.110;4.706;2023-12-07T09:51:00;3.90;76.20
83146;DHT22;73037;51.110;4.706;2023-12-07T09:53:29;3.90;76.20
83146;DHT22;73037;51.110;4.706;2023-12-07T09:55:55;4.00;76.40
83146;DHT22;73037;51.110;4.706;2023-12-07T09:58:21;4.10;75.40
83146;DHT22;73037;51.110;4.706;2023-12-07T10:00:49;4.10;75.00
83146;DHT22;73037;51.110;4.706;2023-12-07T10:03:22;4.20;75.40
83146;DHT22;73037;51.110;4.706;2023-12-07T10:05:57;4.30;75.00
83146;DHT22;73037;51.110;4.706;2023-12-07T10:08:30;4.30;75.30
83146;DHT22;73037;51.110;4.706;2023-12-07T10:11:03;4.30;74.70
83146;DHT22;73037;51.110;4.706;2023-12-07T10:13:31;4.30;75.20
83146;DHT22;73037;51.110;4.706;2023-12-07T10:16:10;4.30;75.00
83146;DHT22;73037;51.110;4.706;2023-12-07T10:18:36;4.30;75.40
83146;DHT22;73037;51.110;4.706;2023-12-07T10:21:03;4.30;74.90
83146;DHT22;73037;51.110;4.706;2023-12-07T10:23:29;4.30;74.70
83146;DHT22;73037;51.110;4.706;2023-12-07T10:25:58;4.20;75.20
83146;DHT22;73037;51.110;4.706;2023-12-07T10:28:24;4.20;74.80
83146;DHT22;73037;51.110;4.706;2023-12-07T10:30:50;4.10;75.40
83146;DHT22;73037;51.110;4.706;2023-12-07T10:33:16;4.20;75.20
83146;DHT22;73037;51.110;4.706;2023-12-07T10:35:44;4.20;75.40
83146;DHT22;73037;51.110;4.706;2023-12-07T10:38:10;4.20;75.20
83146;DHT22;73037;51.110;4.706;2023-12-07T10:40:37;4.30;75.30
83146;DHT22;73037;51.110;4.706;2023-12-07T10:43:06;4.40;74.80
83146;DHT22;73037;51.110;4.706;2023-12-07T10:45:32;4.40;74.10
83146;DHT22;73037;51.110;4.706;2023-12-07T10:48:03;4.50;75.00
83146;DHT22;73037;51.110;4.706;2023-12-07T10:50:35;4.50;73.90
83146;DHT22;73037;51.110;4.706;2023-12-07T10:53:08;4.50;74.20
83146;DHT22;73037;51.110;4.706;2023-12-07T10:55:52;4.50;74.40
83146;DHT22;73037;51.110;4.706;2023-12-07T10:58:19;4.50;74.90
83146;DHT22;73037;51.110;4.706;2023-12-07T11:00:48;4.60;73.50
83146;DHT22;73037;51.110;4.706;2023-12-07T11:03:15;4.70;74.30
83146;DHT22;73037;51.110;4.706;2023-12-07T11:05:45;4.70;73.90
83146;DHT22;73037;51.110;4.706;2023-12-07T11:08:21;4.70;74.10
83146;DHT22;73037;51.110;4.706;2023-12-07T11:11:06;4.70;73.60
83146;DHT22;73037;51.110;4.706;2023-12-07T11:13:35;4.80;73.70
83146;DHT22;73037;51.110;4.706;2023-12-07T11:16:03;4.80;74.00
83146;DHT22;73037;51.110;4.706;2023-12-07T11:18:29;4.90;73.80
83146;DHT22;73037;51.110;4.706;2023-12-07T11:20:55;4.90;73.80
83146;DHT22;73037;51.110;4.706;2023-12-07T11:23:22;4.90;73.60
83146;DHT22;73037;51.110;4.706;2023-12-07T11:25:49;4.90;73.50
83146;DHT22;73037;51.110;4.706;2023-12-07T11:28:15;4.80;72.60
83146;DHT22;73037;51.110;4.706;2023-12-07T11:30:44;4.80;73.20
83146;DHT22;73037;51.110;4.706;2023-12-07T11:33:10;4.90;73.60
83146;DHT22;73037;51.110;4.706;2023-12-07T11:38:21;4.90;73.30
83146;DHT22;73037;51.110;4.706;2023-12-07T11:40:47;4.80;73.50
83146;DHT22;73037;51.110;4.706;2023-12-07T11:45:57;4.80;73.20
83146;DHT22;73037;51.110;4.706;2023-12-07T11:48:23;4.70;72.90
83146;DHT22;73037;51.110;4.706;2023-12-07T11:53:37;4.90;73.00
83146;DHT22;73037;51.110;4.706;2023-12-07T11:56:04;4.90;73.10
83146;DHT22;73037;51.110;4.706;2023-12-07T11:58:32;4.90;72.20
83146;DHT22;73037;51.110;4.706;2023-12-07T12:00:58;5.00;73.10
83146;DHT22;73037;51.110;4.706;2023-12-07T12:03:27;5.00;72.80
83146;DHT22;73037;51.110;4.706;2023-12-07T12:05:54;5.10;72.60
83146;DHT22;73037;51.110;4.706;2023-12-07T12:08:20;5.20;72.50
83146;DHT22;73037;51.110;4.706;2023-12-07T12:10:47;5.30;72.40
83146;DHT22;73037;51.110;4.706;2023-12-07T12:13:15;5.30;72.00
83146;DHT22;73037;51.110;4.706;2023-12-07T12:15:40;5.30;72.00
83146;DHT22;73037;51.110;4.706;2023-12-07T12:18:07;5.20;72.20
83146;DHT22;73037;51.110;4.706;2023-12-07T12:20:33;5.20;71.80
83146;DHT22;73037;51.110;4.706;2023-12-07T12:22:59;5.10;72.10
83146;DHT22;73037;51.110;4.706;2023-12-07T12:25:27;5.10;71.90
83146;DHT22;73037;51.110;4.706;2023-12-07T12:28:02;5.00;71.50
83146;DHT22;73037;51.110;4.706;2023-12-07T12:30:29;5.00;71.60
83146;DHT22;73037;51.110;4.706;2023-12-07T12:32:56;5.00;71.80
83146;DHT22;73037;51.110;4.706;2023-12-07T12:35:21;5.00;71.70
83146;DHT22;73037;51.110;4.706;2023-12-07T12:37:49;5.00;71.50
83146;DHT22;73037;51.110;4.706;2023-12-07T12:40:16;5.00;71.80
83146;DHT22;73037;51.110;4.706;2023-12-07T12:42:45;5.10;71.70
83146;DHT22;73037;51.110;4.706;2023-12-07T12:45:11;5.10;71.00
83146;DHT22;73037;51.110;4.706;2023-12-07T12:47:38;5.10;71.50
83146;DHT22;73037;51.110;4.706;2023-12-07T12:50:06;5.10;71.20
83146;DHT22;73037;51.110;4.706;2023-12-07T12:52:33;5.10;71.20
83146;DHT22;73037;51.110;4.706;2023-12-07T12:54:58;5.20;71.40
83146;DHT22;73037;51.110;4.706;2023-12-07T12:57:24;5.30;70.70
83146;DHT22;73037;51.110;4.706;2023-12-07T12:59:51;5.30;71.00
83146;DHT22;73037;51.110;4.706;2023-12-07T13:02:16;5.30;71.30
83146;DHT22;73037;51.110;4.706;2023-12-07T13:04:44;5.30;70.80
83146;DHT22;73037;51.110;4.706;2023-12-07T13:07:11;5.30;70.50
83146;DHT22;73037;51.110;4.706;2023-12-07T13:09:38;5.30;69.90
83146;DHT22;73037;51.110;4.706;2023-12-07T13:12:03;5.30;70.50
83146;DHT22;73037;51.110;4.706;2023-12-07T13:14:29;5.30;70.50
83146;DHT22;73037;51.110;4.706;2023-12-07T13:16:55;5.40;70.50
83146;DHT22;73037;51.110;4.706;2023-12-07T13:19:21;5.40;70.20
83146;DHT22;73037;51.110;4.706;2023-12-07T13:21:47;5.40;70.20
83146;DHT22;73037;51.110;4.706;2023-12-07T13:24:13;5.40;70.60
83146;DHT22;73037;51.110;4.706;2023-12-07T13:26:39;5.40;70.50
83146;DHT22;73037;51.110;4.706;2023-12-07T13:29:05;5.40;70.40
83146;DHT22;73037;51.110;4.706;2023-12-07T13:31:30;5.40;69.70
83146;DHT22;73037;51.110;4.706;2023-12-07T13:33:56;5.30;70.10
83146;DHT22;73037;51.110;4.706;2023-12-07T13:36:22;5.40;70.30
83146;DHT22;73037;51.110;4.706;2023-12-07T13:38:51;5.40;69.80
83146;DHT22;73037;51.110;4.706;2023-12-07T13:41:17;5.40;70.10
83146;DHT22;73037;51.110;4.706;2023-12-07T13:43:42;5.40;70.00
83146;DHT22;73037;51.110;4.706;2023-12-07T13:46:08;5.40;69.80
83146;DHT22;73037;51.110;4.706;2023-12-07T13:48:35;5.50;69.60
83146;DHT22;73037;51.110;4.706;2023-12-07T13:51:01;5.50;69.20
83146;DHT22;73037;51.110;4.706;2023-12-07T13:53:27;5.40;69.60
83146;DHT22;73037;51.110;4.706;2023-12-07T13:55:53;5.40;69.60
83146;DHT22;73037;51.110;4.706;2023-12-07T13:58:19;5.50;70.00
83146;DHT22;73037;51.110;4.706;2023-12-07T14:00:44;5.50;69.30
83146;DHT22;73037;51.110;4.706;2023-12-07T14:03:11;5.50;69.30
83146;DHT22;73037;51.110;4.706;2023-12-07T14:05:38;5.50;69.70
83146;DHT22;73037;51.110;4.706;2023-12-07T14:08:05;5.50;69.70
83146;DHT22;73037;51.110;4.706;2023-12-07T14:10:31;5.50;69.20
83146;DHT22;73037;51.110;4.706;2023-12-07T14:12:57;5.40;69.60
83146;DHT22;73037;51.110;4.706;2023-12-07T14:15:22;5.40;69.20
83146;DHT22;73037;51.110;4.706;2023-12-07T14:17:48;5.40;69.30
83146;DHT22;73037;51.110;4.706;2023-12-07T14:20:14;5.40;69.60
83146;DHT22;73037;51.110;4.706;2023-12-07T14:22:40;5.40;68.60
83146;DHT22;73037;51.110;4.706;2023-12-07T14:25:06;5.40;69.20
83146;DHT22;73037;51.110;4.706;2023-12-07T14:27:31;5.40;69.40
83146;DHT22;73037;51.110;4.706;2023-12-07T14:29:57;5.30;68.80
83146;DHT22;73037;51.110;4.706;2023-12-07T14:32:23;5.30;69.20
83146;DHT22;73037;51.110;4.706;2023-12-07T14:34:49;5.30;69.20
83146;DHT22;73037;51.110;4.706;2023-12-07T14:37:15;5.30;69.40
83146;DHT22;73037;51.110;4.706;2023-12-07T14:39:40;5.30;69.30
83146;DHT22;73037;51.110;4.706;2023-12-07T14:42:06;5.20;69.10
83146;DHT22;73037;51.110;4.706;2023-12-07T14:44:32;5.10;69.50
83146;DHT22;73037;51.110;4.706;2023-12-07T14:46:58;5.10;70.00
83146;DHT22;73037;51.110;4.706;2023-12-07T14:49:25;5.10;69.80
83146;DHT22;73037;51.110;4.706;2023-12-07T14:51:52;5.10;70.10
83146;DHT22;73037;51.110;4.706;2023-12-07T14:54:19;5.10;70.30
83146;DHT22;73037;51.110;4.706;2023-12-07T14:56:45;5.00;70.30
83146;DHT22;73037;51.110;4.706;2023-12-07T14:59:10;5.00;70.20
83146;DHT22;73037;51.110;4.706;2023-12-07T15:01:37;5.00;70.60
83146;DHT22;73037;51.110;4.706;2023-12-07T15:04:04;5.00;70.50
83146;DHT22;73037;51.110;4.706;2023-12-07T15:06:31;5.00;70.70
83146;DHT22;73037;51.110;4.706;2023-12-07T15:08:57;5.00;70.90
83146;DHT22;73037;51.110;4.706;2023-12-07T15:11:23;4.90;71.00
83146;DHT22;73037;51.110;4.706;2023-12-07T15:13:48;4.90;71.00
83146;DHT22;73037;51.110;4.706;2023-12-07T15:16:14;4.90;71.20
83146;DHT22;73037;51.110;4.706;2023-12-07T15:18:40;4.80;70.80
83146;DHT22;73037;51.110;4.706;2023-12-07T15:21:11;4.80;71.10
83146;DHT22;73037;51.110;4.706;2023-12-07T15:23:38;4.70;71.10
83146;DHT22;73037;51.110;4.706;2023-12-07T15:26:05;4.70;71.10
83146;DHT22;73037;51.110;4.706;2023-12-07T15:28:30;4.70;70.90
83146;DHT22;73037;51.110;4.706;2023-12-07T15:30:56;4.70;71.10
83146;DHT22;73037;51.110;4.706;2023-12-07T15:33:21;4.70;71.30
83146;DHT22;73037;51.110;4.706;2023-12-07T15:35:47;4.60;71.10
83146;DHT22;73037;51.110;4.706;2023-12-07T15:38:13;4.60;71.20
83146;DHT22;73037;51.110;4.706;2023-12-07T15:40:39;4.50;70.90
83146;DHT22;73037;51.110;4.706;2023-12-07T15:43:05;4.50;70.70
83146;DHT22;73037;51.110;4.706;2023-12-07T15:45:30;4.50;70.90
83146;DHT22;73037;51.110;4.706;2023-12-07T15:47:56;4.50;71.30
83146;DHT22;73037;51.110;4.706;2023-12-07T15:50:22;4.50;70.60
83146;DHT22;73037;51.110;4.706;2023-12-07T15:52:48;4.50;70.80